Time;durP1;ratioP1;P1;durP2;ratioP2;P2;SDS_P1;SDS_P2;PMS_P1;PMS_P2;Temp;Humidity;BMP_temperature;BMP_pressure;BME280_temperature;BME280_humidity;BME280_pressure;Samples;Min_cycle;Max_cycle;Signal;HPM_P1;HPM_P2
2022/02/05 00:02:20;;;;;;;16.13;3.08;;;;;;;1.47;100.00;100174.88;5064916;28;20085;-77
2022/02/05 00:04:47;;;;;;;24.63;3.67;;;;;;;1.53;100.00;100181.44;5062017;28;20067;-78
2022/02/05 00:07:13;;;;;;;21.05;3.83;;;;;;;1.51;100.00;100190.41;5049427;28;20466;-79
2022/02/05 00:20:10;;;;;;;24.85;5.10;;;;;;;1.54;100.00;100201.53;5064140;28;20682;-78
2022/02/05 00:41:16;;;;;;;19.75;3.95;;;;;;;1.69;100.00;100208.25;5066449;28;20058;-77
2022/02/05 00:44:04;;;;;;;10.75;2.55;;;;;;;1.70;100.00;100211.72;5064190;28;20037;-78
2022/02/05 00:46:32;;;;;;;;;;;;;;;1.67;100.00;100220.69;5067574;28;20053;-76
2022/02/05 00:48:58;;;;;;;14.73;3.30;;;;;;;1.81;100.00;100227.50;5059614;28;19932;-77
2022/02/05 00:51:38;;;;;;;15.48;2.80;;;;;;;1.93;100.00;100224.88;5050271;28;20020;-79
2022/02/05 00:59:19;;;;;;;13.05;2.65;;;;;;;2.02;100.00;100225.00;5088726;28;20036;-77
2022/02/05 01:01:45;;;;;;;15.60;2.28;;;;;;;2.03;100.00;100218.75;5092279;28;20389;-77
2022/02/05 01:04:11;;;;;;;;;;;;;;;2.06;100.00;100210.66;5074293;28;20103;-78
2022/02/05 01:06:37;;;;;;;21.48;3.05;;;;;;;1.99;100.00;100219.13;5090783;28;20332;-78
2022/02/05 01:09:06;;;;;;;23.90;4.75;;;;;;;2.02;100.00;100217.09;5073710;28;20039;-79
2022/02/05 01:11:33;;;;;;;19.25;2.80;;;;;;;2.05;100.00;100203.69;5073432;28;20090;-78
2022/02/05 01:14:00;;;;;;;21.50;3.85;;;;;;;1.97;100.00;100207.91;5056363;28;20036;-77
2022/02/05 01:19:06;;;;;;;16.05;3.25;;;;;;;2.07;100.00;100214.94;5090984;28;20032;-77
2022/02/05 01:24:02;;;;;;;17.60;3.33;;;;;;;2.11;100.00;100218.19;5075003;28;20040;-78
2022/02/05 01:26:34;;;;;;;12.80;3.05;;;;;;;2.09;100.00;100214.84;5097955;28;20096;-79
2022/02/05 01:29:08;;;;;;;17.38;4.65;;;;;;;2.10;100.00;100227.84;5080028;28;20639;-79
2022/02/05 01:31:45;;;;;;;13.65;3.75;;;;;;;2.10;100.00;100225.22;5093219;28;20097;-77
2022/02/05 01:34:21;;;;;;;14.18;3.63;;;;;;;2.05;100.00;100226.56;5082397;28;20156;-77
2022/02/05 01:48:53;;;;;;;9.48;2.83;;;;;;;2.08;100.00;100231.56;5072421;28;20041;-79
2022/02/05 01:50:38;;;;;;;11.27;2.17;;;;;;;2.20;100.00;100246.44;5073281;28;20063;-77
2022/02/05 01:58:21;;;;;;;12.55;2.17;;;;;;;2.25;100.00;100239.00;5072705;28;20056;-78
2022/02/05 02:11:43;;;;;;;10.95;1.50;;;;;;;2.17;100.00;100243.19;5056540;28;20071;-79
2022/02/05 02:14:30;;;;;;;11.20;1.65;;;;;;;2.05;100.00;100252.88;5098212;28;20036;-78
2022/02/05 02:27:27;;;;;;;5.17;1.00;;;;;;;1.69;100.00;100262.69;5087280;28;20779;-77
2022/02/05 02:32:25;;;;;;;2.50;0.40;;;;;;;1.43;100.00;100238.34;5091599;28;20561;-77
2022/02/05 02:34:55;;;;;;;4.38;0.32;;;;;;;1.38;100.00;100245.72;5094658;28;20028;-77
2022/02/05 02:37:28;;;;;;;1.95;0.32;;;;;;;1.37;100.00;100251.97;5078981;28;20053;-78
2022/02/05 02:40:20;;;;;;;2.50;0.55;;;;;;;1.39;100.00;100261.41;5072717;28;20059;-76
2022/02/05 02:42:49;;;;;;;4.25;0.60;;;;;;;1.43;100.00;100278.66;5079132;28;20028;-78
2022/02/05 02:45:15;;;;;;;2.83;0.65;;;;;;;1.49;100.00;100279.97;5081755;28;20036;-77
2022/02/05 02:47:43;;;;;;;2.78;1.13;;;;;;;1.42;100.00;100292.75;5088400;28;20031;-77
2022/02/05 02:58:24;;;;;;;2.15;1.13;;;;;;;1.41;100.00;100359.47;5073689;28;20050;-78
2022/02/05 03:00:55;;;;;;;7.03;0.98;;;;;;;1.33;100.00;100361.81;5112306;28;20050;-78
2022/02/05 03:03:20;;;;;;;6.32;0.80;;;;;;;1.13;100.00;100358.03;5094791;28;20078;-80
2022/02/05 03:05:46;;;;;;;1.70;1.43;;;;;;;1.15;100.00;100369.28;5090786;28;20051;-78
2022/02/05 03:08:11;;;;;;;2.20;0.50;;;;;;;0.90;100.00;100366.72;5077799;28;20289;-79
2022/02/05 03:10:36;;;;;;;0.97;0.40;;;;;;;0.89;100.00;100378.16;5095102;28;20480;-77
2022/02/05 03:13:02;;;;;;;5.23;0.80;;;;;;;0.87;100.00;100382.69;5095133;28;20289;-77
2022/02/05 03:15:36;;;;;;;11.63;1.85;;;;;;;0.66;100.00;100370.16;5076642;28;20269;-78
2022/02/05 03:18:07;;;;;;;8.77;1.00;;;;;;;0.53;100.00;100382.44;5092831;28;20455;-79
2022/02/05 03:20:33;;;;;;;2.15;0.57;;;;;;;0.55;100.00;100376.16;5083494;28;20039;-79
2022/02/05 03:23:02;;;;;;;1.73;0.75;;;;;;;0.50;100.00;100366.91;5099910;28;20132;-77
2022/02/05 03:25:29;;;;;;;3.25;0.50;;;;;;;0.50;100.00;100354.63;5079618;28;20131;-78
2022/02/05 03:27:55;;;;;;;2.15;0.52;;;;;;;0.32;100.00;100348.84;5093948;28;20024;-78
2022/02/05 03:30:21;;;;;;;3.10;0.57;;;;;;;0.31;100.00;100352.44;5080428;28;20085;-77
2022/02/05 03:32:46;;;;;;;2.60;0.80;;;;;;;0.29;100.00;100349.06;5076705;28;20038;-78
2022/02/05 03:35:12;;;;;;;0.95;0.40;;;;;;;0.26;100.00;100338.78;5076865;28;20746;-79
2022/02/05 03:37:37;;;;;;;1.63;0.52;;;;;;;0.28;100.00;100347.41;5084375;28;20039;-78
2022/02/05 03:40:03;;;;;;;0.75;0.30;;;;;;;0.23;100.00;100349.47;5075916;28;20058;-78
2022/02/05 03:42:28;;;;;;;1.27;0.40;;;;;;;0.09;100.00;100341.72;5090371;28;20135;-77
2022/02/05 03:44:54;;;;;;;3.75;0.35;;;;;;;0.17;100.00;100365.69;5093874;28;20042;-77
2022/02/05 03:47:19;;;;;;;2.67;0.75;;;;;;;0.13;100.00;100364.19;5077240;28;20063;-78
2022/02/05 03:49:45;;;;;;;3.55;0.68;;;;;;;0.05;100.00;100369.13;5092401;28;20470;-77
2022/02/05 03:52:10;;;;;;;6.15;0.40;;;;;;;0.06;100.00;100376.06;5070976;28;20059;-77
2022/02/05 03:54:35;;;;;;;4.47;0.50;;;;;;;0.13;100.00;100374.69;5071576;28;20036;-77
2022/02/05 03:57:01;;;;;;;1.83;0.60;;;;;;;0.12;100.00;100392.25;5072887;28;20323;-78
2022/02/05 03:59:27;;;;;;;1.38;0.30;;;;;;;0.16;100.00;100396.34;5066565;28;20282;-78
2022/02/05 04:01:56;;;;;;;2.63;0.68;;;;;;;0.14;100.00;100402.63;5077514;28;20433;-78
2022/02/05 04:04:23;;;;;;;2.22;0.70;;;;;;;0.05;100.00;100395.34;5076817;28;20043;-77
2022/02/05 04:06:49;;;;;;;3.35;0.75;;;;;;;0.16;100.00;100421.72;5098548;28;20019;-76
2022/02/05 04:09:22;;;;;;;1.10;0.40;;;;;;;0.29;100.00;100437.53;5090588;28;20408;-76
2022/02/05 04:16:57;;;;;;;3.20;0.38;;;;;;;0.37;100.00;100459.66;5081838;28;20056;-78
2022/02/05 04:19:22;;;;;;;3.63;0.47;;;;;;;0.40;100.00;100463.91;5088425;28;20112;-77
2022/02/05 04:21:48;;;;;;;4.90;0.60;;;;;;;0.37;100.00;100464.91;5096045;28;20094;-76
2022/02/05 04:24:13;;;;;;;3.43;0.57;;;;;;;0.44;100.00;100472.38;5064410;28;20285;-76
2022/02/05 04:26:38;;;;;;;6.70;0.65;;;;;;;0.45;100.00;100463.59;5074621;28;20122;-76
2022/02/05 04:29:09;;;;;;;2.40;0.70;;;;;;;0.52;100.00;100472.72;5075262;28;20035;-77
2022/02/05 04:31:35;;;;;;;5.68;0.90;;;;;;;0.47;100.00;100477.44;5080773;28;20126;-77
2022/02/05 04:34:00;;;;;;;7.28;1.30;;;;;;;0.40;100.00;100475.25;5087530;28;20217;-77
2022/02/05 04:36:26;;;;;;;5.78;0.73;;;;;;;0.37;100.00;100479.84;5072771;28;20040;-77
2022/02/05 04:38:52;;;;;;;7.87;2.40;;;;;;;0.31;100.00;100482.91;5071410;28;20473;-77
2022/02/05 04:41:26;;;;;;;3.85;0.57;;;;;;;0.33;100.00;100494.16;5061161;28;20281;-77
2022/02/05 04:44:08;;;;;;;3.92;0.65;;;;;;;0.40;100.00;100496.25;5071859;28;20516;-76
2022/02/05 04:54:41;;;;;;;5.68;1.17;;;;;;;0.35;100.00;100493.09;5084865;28;20024;-76
2022/02/05 04:57:37;;;;;;;6.00;1.52;;;;;;;0.28;100.00;100507.59;5067917;28;20100;-76
2022/02/05 05:00:15;;;;;;;8.20;0.93;;;;;;;0.30;100.00;100510.91;5084991;28;20039;-76
2022/02/05 05:03:10;;;;;;;3.85;1.90;;;;;;;0.31;100.00;100510.00;5090712;28;20055;-76
2022/02/05 05:19:28;;;;;;;7.45;0.90;;;;;;;0.35;100.00;100532.50;5093589;28;20027;-76
2022/02/05 05:21:55;;;;;;;8.30;1.10;;;;;;;0.33;100.00;100529.13;5082318;28;20874;-76
2022/02/05 05:24:21;;;;;;;3.30;1.17;;;;;;;0.32;100.00;100532.66;5074879;28;20028;-76
2022/02/05 05:26:46;;;;;;;6.57;1.15;;;;;;;0.25;100.00;100518.28;5086903;28;20039;-77
2022/02/05 05:29:11;;;;;;;3.63;1.00;;;;;;;0.27;100.00;100524.25;5076915;28;20055;-77
2022/02/05 05:31:37;;;;;;;7.17;1.30;;;;;;;0.18;100.00;100520.47;5062519;28;20309;-77
2022/02/05 05:34:02;;;;;;;19.65;2.28;;;;;;;0.26;100.00;100525.22;5074403;28;20473;-77
2022/02/05 05:36:29;;;;;;;4.45;0.93;;;;;;;0.24;100.00;100524.47;5091823;28;20067;-75
2022/02/05 05:39:00;;;;;;;10.40;0.93;;;;;;;0.25;100.00;100531.41;5066442;28;20032;-76
2022/02/05 05:41:26;;;;;;;8.02;2.00;;;;;;;0.18;100.00;100523.09;5075582;28;20061;-76
2022/02/05 05:46:32;;;;;;;9.48;1.10;;;;;;;0.16;100.00;100542.50;5081603;28;20039;-77
2022/02/05 05:49:10;;;;;;;6.68;1.00;;;;;;;0.29;100.00;100543.38;5063221;28;20378;-76
2022/02/05 05:51:35;;;;;;;7.20;1.05;;;;;;;0.27;100.00;100549.69;5087379;28;20046;-77
2022/02/05 05:54:01;;;;;;;6.18;1.30;;;;;;;0.32;100.00;100547.59;5101587;28;20102;-77
2022/02/05 05:56:26;;;;;;;3.83;0.70;;;;;;;0.27;100.00;100549.69;5084482;28;20143;-76
2022/02/05 05:58:52;;;;;;;16.98;1.50;;;;;;;0.36;100.00;100559.59;5092004;28;20016;-77
2022/02/05 06:01:17;;;;;;;10.93;1.42;;;;;;;0.33;100.00;100565.06;5097499;28;20559;-77
2022/02/05 06:03:43;;;;;;;10.77;1.35;;;;;;;0.33;100.00;100563.25;5055332;28;20031;-77
2022/02/05 06:06:08;;;;;;;9.27;1.60;;;;;;;0.22;100.00;100565.75;5088735;28;20038;-77
2022/02/05 06:08:34;;;;;;;10.10;1.25;;;;;;;0.26;100.00;100569.88;5058898;28;20031;-76
2022/02/05 06:10:59;;;;;;;6.30;1.38;;;;;;;0.26;100.00;100574.25;5093793;28;20687;-76
2022/02/05 06:13:24;;;;;;;8.53;2.17;;;;;;;0.31;100.00;100588.78;5077259;28;20026;-76
2022/02/05 06:15:52;;;;;;;9.63;1.38;;;;;;;0.25;100.00;100583.91;5085956;28;20123;-77
2022/02/05 06:18:18;;;;;;;6.32;1.10;;;;;;;0.22;100.00;100578.88;5059892;28;20614;-77
2022/02/05 06:20:43;;;;;;;17.30;2.63;;;;;;;0.19;100.00;100584.34;5058625;28;20118;-77
2022/02/05 06:23:08;;;;;;;9.17;1.83;;;;;;;0.26;100.00;100601.38;5079391;28;20166;-77
2022/02/05 06:25:35;;;;;;;9.55;1.85;;;;;;;0.27;100.00;100600.41;5077200;28;20109;-76
2022/02/05 06:28:01;;;;;;;9.70;2.13;;;;;;;0.24;100.00;100610.28;5095244;28;20056;-76
2022/02/05 06:30:27;;;;;;;19.23;2.33;;;;;;;0.22;100.00;100612.16;5076857;28;20481;-76
2022/02/05 06:32:53;;;;;;;6.22;1.52;;;;;;;0.19;100.00;100610.59;5044401;28;20046;-76
2022/02/05 06:35:19;;;;;;;16.73;1.92;;;;;;;0.25;100.00;100610.16;5068702;28;20028;-76
2022/02/05 06:37:45;;;;;;;20.83;2.30;;;;;;;0.21;100.00;100611.31;5084589;28;20099;-77
2022/02/05 06:40:11;;;;;;;18.35;2.33;;;;;;;0.25;100.00;100612.81;5088607;28;20119;-76
2022/02/05 06:42:36;;;;;;;9.35;1.83;;;;;;;0.32;100.00;100624.59;5091055;28;20031;-76
2022/02/05 06:45:03;;;;;;;12.93;1.95;;;;;;;0.29;100.00;100627.44;5082902;28;20379;-77
2022/02/05 06:47:28;;;;;;;;;;;;;;;0.35;100.00;100632.28;5076877;28;20800;-77
2022/02/05 06:49:53;;;;;;;10.13;1.83;;;;;;;0.27;100.00;100628.47;5080506;28;19943;-77
2022/02/05 06:52:19;;;;;;;13.18;1.55;;;;;;;0.27;100.00;100637.19;5090863;28;20034;-77
2022/02/05 06:54:44;;;;;;;8.40;1.70;;;;;;;0.35;100.00;100642.78;5081044;28;20953;-77
2022/02/05 06:57:09;;;;;;;16.23;1.97;;;;;;;0.33;100.00;100644.69;5074098;28;20070;-77
2022/02/05 06:59:35;;;;;;;16.73;1.90;;;;;;;0.41;100.00;100647.63;5076809;28;20797;-77
2022/02/05 07:02:00;;;;;;;15.18;2.10;;;;;;;0.34;100.00;100643.72;5087953;28;20381;-77
2022/02/05 07:04:27;;;;;;;12.23;1.05;;;;;;;0.36;100.00;100643.63;5075703;28;20040;-75
2022/02/05 07:06:56;;;;;;;16.10;1.70;;;;;;;0.40;100.00;100653.00;5091477;28;20024;-76
2022/02/05 07:09:23;;;;;;;7.03;1.23;;;;;;;0.35;100.00;100647.19;5087801;28;20039;-76
2022/02/05 07:11:48;;;;;;;9.10;1.70;;;;;;;0.36;100.00;100660.22;5056395;28;20020;-76
2022/02/05 07:14:17;;;;;;;17.80;2.20;;;;;;;0.39;100.00;100646.88;5081771;28;20409;-76
2022/02/05 07:16:52;;;;;;;10.55;1.98;;;;;;;0.43;100.00;100654.59;5077652;28;20089;-76
2022/02/05 07:21:48;;;;;;;8.80;1.73;;;;;;;0.55;100.00;100656.41;5060089;28;21861;-77
2022/02/05 07:24:27;;;;;;;23.10;2.55;;;;;;;0.54;100.00;100647.69;5081065;28;20474;-77
2022/02/05 07:29:37;;;;;;;13.20;1.98;;;;;;;0.73;100.00;100657.84;5084344;28;20036;-76
2022/02/05 07:32:02;;;;;;;18.15;2.30;;;;;;;0.90;100.00;100661.13;5067979;28;20123;-76
2022/02/05 07:34:30;;;;;;;7.72;1.40;;;;;;;1.04;100.00;100664.50;5079074;28;20059;-76
2022/02/05 07:37:02;;;;;;;8.25;1.42;;;;;;;1.13;100.00;100660.41;5089868;28;20031;-77
2022/02/05 07:39:29;;;;;;;18.52;2.80;;;;;;;1.05;100.00;100652.19;5055669;28;20413;-77
2022/02/05 07:41:55;;;;;;;13.43;1.65;;;;;;;1.26;100.00;100658.66;5074223;28;20019;-76
2022/02/05 07:44:21;;;;;;;9.48;1.83;;;;;;;1.26;100.00;100640.25;5079526;28;20099;-76
2022/02/05 07:46:49;;;;;;;8.18;2.30;;;;;;;1.50;100.00;100652.63;5077325;28;21668;-77
2022/02/05 07:49:17;;;;;;;13.95;1.50;;;;;;;1.74;100.00;100657.13;5076631;28;20027;-76
2022/02/05 07:51:42;;;;;;;7.45;1.77;;;;;;;1.88;100.00;100662.28;5073589;28;20024;-76
2022/02/05 07:54:10;;;;;;;8.77;2.08;;;;;;;1.98;100.00;100650.13;5074166;28;20024;-76
2022/02/05 07:56:47;;;;;;;12.90;2.25;;;;;;;2.21;100.00;100645.00;5091608;28;20016;-76
2022/02/05 07:59:13;;;;;;;13.20;1.83;;;;;;;2.24;100.00;100632.44;5087984;28;20030;-77
2022/02/05 08:01:39;;;;;;;15.77;1.55;;;;;;;2.42;100.00;100643.44;5087275;28;20064;-77
2022/02/05 08:04:05;;;;;;;22.90;2.17;;;;;;;2.64;100.00;100639.22;5061206;28;20048;-77
2022/02/05 08:06:32;;;;;;;11.20;2.53;;;;;;;2.87;100.00;100625.16;5090757;28;20027;-77
2022/02/05 08:09:01;;;;;;;10.02;1.50;;;;;;;3.09;100.00;100629.66;5088039;28;20119;-77
2022/02/05 08:11:37;;;;;;;11.63;1.75;;;;;;;3.42;100.00;100620.09;5067323;28;20031;-77
2022/02/05 08:14:07;;;;;;;4.57;1.30;;;;;;;3.55;100.00;100614.69;5068983;28;20036;-77
2022/02/05 08:19:08;;;;;;;16.90;2.28;;;;;;;3.29;100.00;100593.78;5080340;28;20031;-78
2022/02/05 08:21:34;;;;;;;12.43;1.98;;;;;;;3.38;100.00;100577.25;5074697;28;20421;-78
2022/02/05 08:24:00;;;;;;;15.60;1.40;;;;;;;3.77;100.00;100582.16;5065749;28;20123;-78
2022/02/05 08:26:28;;;;;;;16.53;2.63;;;;;;;3.78;100.00;100562.69;5067012;28;20146;-78
2022/02/05 08:29:00;;;;;;;8.63;1.25;;;;;;;3.90;100.00;100566.16;5084222;28;20375;-77
2022/02/05 08:31:26;;;;;;;10.20;1.40;;;;;;;4.26;99.66;100558.81;5064716;28;20093;-77
2022/02/05 08:33:53;;;;;;;9.63;1.45;;;;;;;4.33;97.92;100541.50;5060999;28;20033;-77
2022/02/05 08:36:21;;;;;;;13.57;2.17;;;;;;;4.55;96.13;100528.16;5059025;28;20895;-77
2022/02/05 08:38:48;;;;;;;9.48;1.33;;;;;;;5.26;95.50;100552.06;5076664;28;20012;-77
2022/02/05 08:41:14;;;;;;;10.48;1.50;;;;;;;5.10;93.03;100509.38;5048661;28;20521;-77
2022/02/05 08:43:40;;;;;;;11.75;1.83;;;;;;;5.30;90.91;100478.53;5068386;28;20065;-78
2022/02/05 08:46:06;;;;;;;6.47;1.50;;;;;;;5.69;89.42;100476.00;5086234;28;20036;-78
2022/02/05 08:48:31;;;;;;;9.73;1.85;;;;;;;6.26;87.59;100453.13;5056239;28;20035;-77
2022/02/05 08:50:57;;;;;;;11.47;1.23;;;;;;;6.44;84.92;100410.81;5046043;28;20032;-77
2022/02/05 08:53:22;;;;;;;11.48;1.75;;;;;;;6.33;83.50;100356.13;5084887;28;20040;-77
2022/02/05 08:55:51;;;;;;;12.07;2.00;;;;;;;5.81;82.37;100292.09;5067699;28;20062;-78
2022/02/05 08:58:17;;;;;;;15.07;1.85;;;;;;;5.99;82.36;100336.41;5070395;28;20123;-78
2022/02/05 09:00:48;;;;;;;5.28;1.23;;;;;;;6.06;82.18;100335.72;5087019;28;20123;-78
2022/02/05 09:03:29;;;;;;;12.90;2.70;;;;;;;6.28;80.84;100313.31;5070393;28;20051;-78
2022/02/05 09:05:54;;;;;;;10.85;1.90;;;;;;;6.22;80.96;100295.31;5087432;28;20036;-78
2022/02/05 09:08:31;;;;;;;14.88;1.73;;;;;;;6.73;79.65;100293.97;5070632;28;20500;-78
2022/02/05 09:11:12;;;;;;;20.73;2.85;;;;;;;6.90;79.05;100299.47;5070871;28;20482;-78
2022/02/05 09:14:13;;;;;;;15.80;3.00;;;;;;;6.90;77.97;100257.00;5073340;28;20371;-78
2022/02/05 09:16:24;;;;;;;8.60;1.55;;;;;;;6.57;77.98;100240.72;5074004;28;20461;-78
2022/02/05 09:18:49;;;;;;;11.23;2.03;;;;;;;6.88;77.71;100243.03;5075270;28;20020;-78
2022/02/05 09:21:16;;;;;;;10.38;1.92;;;;;;;7.39;77.08;100260.09;5058358;28;20079;-78
2022/02/05 09:23:44;;;;;;;;;;;;;;;8.00;75.74;100243.22;5091788;28;20020;-78
2022/02/05 09:26:11;;;;;;;11.85;2.15;;;;;;;7.76;75.20;100201.41;5075317;28;20273;-78
2022/02/05 09:28:37;;;;;;;8.18;1.65;;;;;;;7.37;74.76;100145.22;5075158;28;20030;-78
2022/02/05 09:33:31;;;;;;;14.57;2.88;;;;;;;7.70;74.93;100206.50;5091964;28;20031;-78
2022/02/05 09:35:56;;;;;;;15.30;2.00;;;;;;;7.15;74.26;100102.28;5075865;28;20036;-78
2022/02/05 09:38:21;;;;;;;15.20;1.93;;;;;;;7.10;76.00;100220.53;5093694;28;20100;-79
2022/02/05 09:40:47;;;;;;;12.80;2.57;;;;;;;6.99;76.38;100221.59;5093467;28;20035;-79
2022/02/05 09:43:13;;;;;;;7.93;2.67;;;;;;;6.80;77.42;100278.28;5095197;28;20269;-78
2022/02/05 09:45:38;;;;;;;16.48;2.92;;;;;;;7.55;76.77;100301.91;5077376;28;20036;-78
2022/02/05 09:48:05;;;;;;;12.23;2.40;;;;;;;7.22;76.21;100215.81;5087994;28;20036;-78
2022/02/05 09:50:31;;;;;;;15.98;2.33;;;;;;;6.86;77.50;100269.75;5071900;28;20040;-79
2022/02/05 09:53:02;;;;;;;16.52;2.92;;;;;;;6.93;77.05;100254.91;5056499;28;20039;-79
2022/02/05 09:55:28;;;;;;;22.85;3.63;;;;;;;6.99;77.15;100269.38;5051473;28;20119;-79
2022/02/05 09:57:54;;;;;;;13.07;2.35;;;;;;;7.05;77.32;100274.09;5061033;28;20124;-77
2022/02/05 10:00:20;;;;;;;16.80;2.67;;;;;;;6.95;77.83;100291.88;5070994;28;20060;-79
2022/02/05 10:02:55;;;;;;;12.00;2.63;;;;;;;6.74;77.76;100255.00;5076072;28;20073;-80
2022/02/05 10:05:26;;;;;;;17.25;3.10;;;;;;;6.85;78.00;100307.03;5054252;28;20020;-79
2022/02/05 10:07:56;;;;;;;14.32;2.67;;;;;;;6.74;78.22;100284.19;5074202;28;20028;-79
2022/02/05 10:10:21;;;;;;;12.50;1.55;;;;;;;7.29;77.67;100301.84;5075933;28;20082;-80
2022/02/05 10:13:09;;;;;;;12.98;2.40;;;;;;;7.09;76.56;100246.22;5079235;28;20027;-78
2022/02/05 10:15:35;;;;;;;12.63;1.80;;;;;;;7.37;74.94;100195.69;5058633;28;20043;-79
2022/02/05 10:18:03;;;;;;;6.13;2.40;;;;;;;7.21;74.40;100180.47;5080604;28;20017;-78
2022/02/05 10:20:29;;;;;;;8.98;1.85;;;;;;;7.58;74.31;100198.81;5075124;28;20031;-78
2022/02/05 10:22:54;;;;;;;10.75;1.50;;;;;;;8.04;72.93;100145.41;5097125;28;20031;-80
2022/02/05 10:25:27;;;;;;;7.35;1.33;;;;;;;8.33;71.93;100130.84;5059469;28;20077;-80
2022/02/05 10:27:54;;;;;;;12.70;1.58;;;;;;;7.84;72.08;100081.03;5072725;28;20025;-79
2022/02/05 10:30:28;;;;;;;8.70;2.25;;;;;;;7.67;73.50;100145.72;5073070;28;20541;-80
2022/02/05 10:33:09;;;;;;;10.80;2.03;;;;;;;7.32;74.39;100179.38;5072078;28;20039;-79
2022/02/05 10:35:50;;;;;;;8.05;2.45;;;;;;;7.51;74.20;100196.94;5062021;28;20266;-81
2022/02/05 10:42:48;;;;;;;14.38;2.08;;;;;;;6.64;77.05;100304.66;5090547;28;20367;-82
2022/02/05 10:43:36;;;;;;;7.85;2.05;;;;;;;6.63;77.63;100309.13;5075250;28;20028;-80
2022/02/05 10:46:03;;;;;;;9.10;2.95;;;;;;;6.06;79.30;100326.91;5073918;28;20355;-81
2022/02/05 10:48:28;;;;;;;;;;;;;;;5.71;80.78;100368.06;5055639;28;20535;-80
2022/02/05 10:50:56;;;;;;;15.65;2.47;;;;;;;5.96;81.74;100430.28;5050449;28;20385;-80
2022/02/05 10:53:28;;;;;;;10.98;2.15;;;;;;;5.68;81.93;100418.69;5067092;28;20267;-80
2022/02/05 10:58:58;;;;;;;13.65;1.90;;;;;;;5.39;83.95;100461.84;5058583;28;20059;-80
2022/02/05 11:07:08;;;;;;;6.40;1.48;;;;;;;5.63;86.56;100537.44;5093249;28;20067;-79
2022/02/05 11:09:34;;;;;;;12.02;2.33;;;;;;;6.15;86.23;100556.66;5052180;28;20032;-78
2022/02/05 11:20:19;;;;;;;10.27;2.42;;;;;;;7.64;79.49;100371.88;5099109;28;20051;-80
2022/02/05 11:22:48;;;;;;;8.50;1.73;;;;;;;7.46;78.33;100286.88;5054106;28;20032;-80
2022/02/05 11:25:15;;;;;;;9.45;2.42;;;;;;;7.27;77.32;100253.38;5077280;28;20040;-81
2022/02/05 11:27:43;;;;;;;9.57;2.10;;;;;;;7.34;77.42;100265.03;5070411;28;20028;-82
2022/02/05 11:30:28;;;;;;;13.45;1.85;;;;;;;7.48;77.18;100272.47;5056784;28;20016;-81
2022/02/05 11:33:02;;;;;;;16.27;2.60;;;;;;;7.29;76.60;100219.53;5070608;28;20406;-78
2022/02/05 11:35:46;;;;;;;7.18;2.03;;;;;;;7.23;76.94;100241.38;5050214;28;20504;-81
2022/02/05 11:38:14;;;;;;;15.07;3.35;;;;;;;6.93;76.58;100203.59;5071231;28;20090;-81
2022/02/05 11:40:39;;;;;;;9.93;2.97;;;;;;;6.56;77.18;100217.84;5054765;28;20020;-80
2022/02/05 11:43:20;;;;;;;8.70;2.37;;;;;;;6.28;77.77;100231.13;5071071;28;20046;-80
2022/02/05 11:46:04;;;;;;;13.40;1.85;;;;;;;6.03;78.84;100263.59;5071059;28;20035;-81
2022/02/05 11:48:51;;;;;;;16.05;2.65;;;;;;;6.62;79.16;100349.03;5053161;28;20044;-81
2022/02/05 11:51:19;;;;;;;15.40;2.20;;;;;;;6.59;79.29;100347.53;5044517;28;20119;-81
2022/02/05 11:54:04;;;;;;;12.13;3.95;;;;;;;6.75;79.92;100376.09;5054788;28;20023;-82
2022/02/05 11:57:01;;;;;;;15.43;2.37;;;;;;;6.93;79.40;100369.00;5052750;28;20040;-81
2022/02/05 11:59:32;;;;;;;15.52;3.45;;;;;;;6.74;79.05;100337.25;5067866;28;20033;-80
2022/02/05 12:02:18;;;;;;;18.20;2.47;;;;;;;6.80;79.56;100365.03;5057401;28;20082;-80
2022/02/05 12:04:43;;;;;;;20.55;4.75;;;;;;;6.46;79.69;100315.19;5078991;28;20132;-78
2022/02/05 12:07:11;;;;;;;13.53;3.03;;;;;;;6.75;80.45;100384.88;5051215;28;20147;-80
2022/02/05 12:09:41;;;;;;;16.48;4.13;;;;;;;6.49;80.41;100354.69;5091088;28;20286;-82
2022/02/05 12:12:26;;;;;;;17.50;3.33;;;;;;;6.85;80.94;100406.06;5056300;28;20093;-83
2022/02/05 12:15:14;;;;;;;14.55;3.03;;;;;;;7.13;80.29;100390.94;5071659;28;20035;-82
2022/02/05 12:17:59;;;;;;;20.95;4.18;;;;;;;7.43;79.10;100348.28;5089272;28;20027;-83
2022/02/05 12:20:28;;;;;;;22.60;4.60;;;;;;;7.84;77.60;100304.25;5092044;28;20032;-83
2022/02/05 12:25:58;;;;;;;12.32;2.75;;;;;;;7.87;75.28;100183.53;5069618;28;20106;-84
2022/02/05 12:28:29;;;;;;;25.52;4.55;;;;;;;7.25;75.36;100159.75;5087470;28;20028;-82
2022/02/05 12:31:01;;;;;;;17.38;3.50;;;;;;;7.44;75.29;100195.88;5051753;28;20040;-82
2022/02/05 12:33:42;;;;;;;13.50;2.47;;;;;;;7.98;73.84;100144.22;5057721;28;20544;-81
2022/02/05 12:36:08;;;;;;;11.60;2.15;;;;;;;7.37;73.61;100042.50;5068449;28;20035;-82
2022/02/05 12:38:41;;;;;;;25.67;3.72;;;;;;;7.31;74.00;100079.47;5081240;28;20054;-82
2022/02/05 12:41:09;;;;;;;16.55;2.47;;;;;;;6.67;74.23;100039.94;5085519;28;20046;-82
2022/02/05 12:43:54;;;;;;;15.23;2.08;;;;;;;6.95;74.66;100111.41;5044049;28;20082;-80
2022/02/05 12:46:23;;;;;;;15.82;2.40;;;;;;;7.46;74.43;100178.81;5060717;28;20394;-83
2022/02/05 12:48:54;;;;;;;14.07;3.28;;;;;;;7.69;73.51;100138.44;5047399;28;20024;-80
2022/02/05 12:51:19;;;;;;;11.20;2.63;;;;;;;7.67;72.77;100069.50;5075550;28;20067;-82
2022/02/05 12:53:45;;;;;;;9.13;1.95;;;;;;;7.89;72.03;100044.19;5074797;28;20098;-81
2022/02/05 12:56:19;;;;;;;13.15;2.75;;;;;;;7.26;72.24;99980.84;5059135;28;20451;-82
2022/02/05 12:59:03;;;;;;;16.83;3.95;;;;;;;7.21;72.96;100058.34;5094276;28;20032;-82
2022/02/05 13:01:30;;;;;;;15.90;2.90;;;;;;;7.41;73.73;100128.00;5094934;28;20465;-80
2022/02/05 13:04:17;;;;;;;17.10;3.85;;;;;;;7.85;73.36;100180.22;5095315;28;20088;-82
2022/02/05 13:06:43;;;;;;;16.63;3.67;;;;;;;7.62;73.18;100093.06;5094775;28;20036;-82
2022/02/05 13:09:22;;;;;;;19.75;3.53;;;;;;;6.94;74.24;100068.13;5077829;28;20035;-81
2022/02/05 13:11:58;;;;;;;20.33;3.65;;;;;;;6.64;75.25;100119.78;5095935;28;20656;-84
2022/02/05 13:14:36;;;;;;;17.90;2.63;;;;;;;6.36;76.38;100140.25;5077623;28;20047;-80
2022/02/05 13:17:03;;;;;;;14.10;3.95;;;;;;;6.17;78.21;100241.91;5095511;28;20117;-83
2022/02/05 13:19:39;;;;;;;20.02;2.60;;;;;;;5.45;79.93;100270.66;5094765;28;20020;-81
2022/02/05 13:27:28;;;;;;;12.75;2.40;;;;;;;4.55;86.74;100456.78;5094963;28;20031;-81
2022/02/05 13:33:35;;;;;;;11.43;2.55;;;;;;;4.15;89.57;100520.91;5078422;28;20051;-80
2022/02/05 13:35:26;;;;;;;17.48;3.30;;;;;;;4.13;94.71;100570.41;5094300;28;20090;-80
2022/02/05 13:37:55;;;;;;;9.60;3.63;;;;;;;4.19;96.48;100587.53;5078493;28;20442;-81
2022/02/05 13:40:23;;;;;;;20.10;4.05;;;;;;;4.18;97.60;100597.28;5061956;28;20036;-81
2022/02/05 13:42:51;;;;;;;17.58;3.10;;;;;;;4.15;98.91;100600.19;5096740;28;20401;-80
2022/02/05 13:45:31;;;;;;;14.13;2.63;;;;;;;4.41;100.00;100623.66;5078180;28;20032;-79
2022/02/05 13:47:57;;;;;;;18.70;3.13;;;;;;;4.55;100.00;100615.41;5078582;28;20028;-80
2022/02/05 13:50:36;;;;;;;21.92;4.00;;;;;;;4.48;100.00;100598.38;5080249;28;20063;-79
2022/02/05 13:53:06;;;;;;;20.40;4.20;;;;;;;4.40;100.00;100595.53;5093410;28;20074;-80
2022/02/05 13:55:37;;;;;;;23.30;3.28;;;;;;;4.54;100.00;100603.19;5061223;28;20077;-80
2022/02/05 13:58:06;;;;;;;21.40;4.55;;;;;;;4.54;99.38;100582.03;5076091;28;20723;-80
2022/02/05 14:00:45;;;;;;;16.90;3.00;;;;;;;4.38;99.22;100563.13;5075598;28;20032;-80
2022/02/05 14:03:14;;;;;;;23.40;4.70;;;;;;;4.38;99.10;100561.31;5092979;28;20032;-81
2022/02/05 14:06:02;;;;;;;16.45;4.80;;;;;;;4.38;99.04;100560.47;5076238;28;20023;-82
2022/02/05 14:08:32;;;;;;;13.75;5.28;;;;;;;4.32;98.96;100545.94;5093316;28;20589;-81
2022/02/05 14:11:00;;;;;;;16.42;3.33;;;;;;;4.34;98.42;100551.13;5076299;28;20044;-81
2022/02/05 14:13:26;;;;;;;17.95;3.78;;;;;;;4.30;98.19;100552.31;5076581;28;20109;-79
2022/02/05 14:15:56;;;;;;;17.75;2.78;;;;;;;4.30;97.99;100547.03;5059002;28;20132;-80